Time;durP1;ratioP1;P1;durP2;ratioP2;P2;SDS_P1;SDS_P2;PMS_P1;PMS_P2;Temp;Humidity;BMP_temperature;BMP_pressure;BME280_temperature;BME280_humidity;BME280_pressure;Samples;Min_cycle;Max_cycle;Signal;HPM_P1;HPM_P2
2024/01/06 00:00:07;;;;;;;;;;;;;;;;;;4956067;28;19922;-55
2024/01/06 00:02:33;;;;;;;;;;;;;;;;;;4957428;28;20948;-55
2024/01/06 00:04:59;;;;;;;;;;;;;;;;;;4960246;28;19939;-54
2024/01/06 00:07:25;;;;;;;;;;;;;;;;;;4954580;28;19946;-55
2024/01/06 00:09:51;;;;;;;;;;;;;;;;;;4957362;28;20391;-55
2024/01/06 00:12:18;;;;;;;;;;;;;;;;;;4960823;28;20025;-54
2024/01/06 00:14:45;;;;;;;;;;;;;;;;;;4952076;28;19918;-54
2024/01/06 00:17:11;;;;;;;;;;;1.80;99.90;;;;;;4954270;28;19918;-54
2024/01/06 00:19:36;;;;;;;;;;;;;;;;;;4958604;28;20232;-55
2024/01/06 00:22:02;;;;;;;;;;;;;;;;;;4961796;28;20041;-54
2024/01/06 00:24:28;;;;;;;;;;;;;;;;;;4954854;28;19918;-55
2024/01/06 00:26:54;;;;;;;;;;;;;;;;;;4956166;28;19965;-55
2024/01/06 00:29:20;;;;;;;;;;;;;;;;;;4953362;28;20457;-55
2024/01/06 00:31:46;;;;;;;;;;;;;;;;;;4953306;28;20662;-54
2024/01/06 00:34:12;;;;;;;;;;;;;;;;;;4953667;28;20044;-55
2024/01/06 00:36:37;;;;;;;;;;;;;;;;;;4960657;28;20380;-55
2024/01/06 00:39:03;;;;;;;;;;;;;;;;;;4954588;28;20553;-55
2024/01/06 00:41:30;;;;;;;;;;;;;;;;;;4956927;28;19981;-54
2024/01/06 00:43:55;;;;;;;;;;;;;;;;;;4954135;28;19963;-55
2024/01/06 00:46:21;;;;;;;;;;;;;;;;;;4949693;28;19926;-55
2024/01/06 00:48:47;;;;;;;;;;;;;;;;;;4952348;28;20281;-55
2024/01/06 00:51:13;;;;;;;;;;;;;;;;;;4956751;28;20032;-54
2024/01/06 00:53:39;;;;;;;;;;;;;;;;;;4960519;28;19936;-55
2024/01/06 00:56:05;;;;;;;;;;;;;;;;;;4952478;28;19918;-55
2024/01/06 00:58:30;;;;;;;;;;;;;;;;;;4956094;28;19914;-55
2024/01/06 01:00:56;;;;;;;;;;;;;;;;;;4950360;28;19922;-55
2024/01/06 01:03:22;;;;;;;;;;;;;;;;;;4953325;28;20415;-54
2024/01/06 01:05:48;;;;;;;;;;;;;;;;;;4952952;28;20932;-55
2024/01/06 01:08:14;;;;;;;;;;;;;;;;;;4951668;28;19922;-55
2024/01/06 01:10:40;;;;;;;;;;;;;;;;;;4952743;28;20182;-55
2024/01/06 01:13:06;;;;;;;;;;;;;;;;;;4950820;28;19919;-54
2024/01/06 01:15:31;;;;;;;;;;;;;;;;;;4954941;28;19918;-55
2024/01/06 01:17:57;;;;;;;;;;;;;;;;;;4961744;28;19926;-54
2024/01/06 01:20:23;;;;;;;;;;;;;;;;;;4954166;28;19922;-54
2024/01/06 01:22:49;;;;;;;;;;;;;;;;;;4953486;28;20088;-55
2024/01/06 01:25:15;;;;;;;;;;;;;;;;;;4954128;28;20389;-55
2024/01/06 01:27:41;;;;;;;;;;;;;;;;;;4952376;28;19986;-55
2024/01/06 01:30:07;;;;;;;;;;;;;;;;;;4952423;28;19922;-55
2024/01/06 01:32:32;;;;;;;;;;;;;;;;;;4950277;28;19936;-55
2024/01/06 01:34:58;;;;;;;;;;;;;;;;;;4955318;28;20110;-55
2024/01/06 01:37:24;;;;;;;;;;;;;;;;;;4955343;28;20206;-55
2024/01/06 01:39:50;;;;;;;;;;;;;;;;;;4955384;28;19918;-55
2024/01/06 01:42:16;;;;;;;;;;;;;;;;;;4954440;28;20389;-55
2024/01/06 01:44:42;;;;;;;;;;;;;;;;;;4953579;28;20000;-55
2024/01/06 01:47:08;;;;;;;;;;;;;;;;;;4953974;28;19929;-55
2024/01/06 01:49:33;;;;;;;;;;;;;;;;;;4952876;28;19969;-55
2024/01/06 01:51:59;;;;;;;;;;;;;;;;;;4953726;28;19928;-55
2024/01/06 01:54:25;;;;;;;;;;;;;;;;;;4956824;28;19926;-55
2024/01/06 01:56:51;;;;;;;;;;;;;;;;;;4956489;28;19923;-55
2024/01/06 01:59:17;;;;;;;;;;;;;;;;;;4956867;28;19990;-55
2024/01/06 02:01:43;;;;;;;;;;;;;;;;;;4964404;28;19922;-55
2024/01/06 02:04:09;;;;;;;;;;;;;;;;;;4958203;28;20242;-55
2024/01/06 02:06:35;;;;;;;;;;;;;;;;;;4962153;28;19992;-55
2024/01/06 02:09:00;;;;;;;;;;;;;;;;;;4962347;28;19926;-55
2024/01/06 02:11:26;;;;;;;;;;;;;;;;;;4959615;28;19922;-55
2024/01/06 02:13:52;;;;;;;;;;;;;;;;;;4964726;28;19922;-55
2024/01/06 02:16:18;;;;;;;;;;;;;;;;;;4962256;28;19929;-55
2024/01/06 02:18:44;;;;;;;;;;;;;;;;;;4956908;28;19990;-54
2024/01/06 02:21:09;;;;;;;;;;;1.40;99.90;;;;;;4961111;28;19933;-55
2024/01/06 02:23:35;;;;;;;;;;;;;;;;;;4957792;28;20962;-55
2024/01/06 02:26:01;;;;;;;;;;;;;;;;;;4955360;28;19922;-55
2024/01/06 02:28:27;;;;;;;;;;;;;;;;;;4965694;28;19910;-55
2024/01/06 02:30:53;;;;;;;;;;;;;;;;;;4955456;28;20373;-54
2024/01/06 02:33:19;;;;;;;;;;;;;;;;;;4960034;28;19922;-54
2024/01/06 02:35:45;;;;;;;;;;;1.20;99.90;;;;;;4957947;28;19922;-54
2024/01/06 02:38:11;;;;;;;;;;;;;;;;;;4959201;28;19999;-54
2024/01/06 02:40:37;;;;;;;;;;;;;;;;;;4960576;28;19911;-54
2024/01/06 02:43:03;;;;;;;;;;;;;;;;;;4955639;28;20000;-54
2024/01/06 02:45:28;;;;;;;;;;;;;;;;;;4954766;28;20476;-54
2024/01/06 02:47:54;;;;;;;;;;;;;;;;;;4962874;28;19926;-53
2024/01/06 02:50:20;;;;;;;;;;;;;;;;;;4960477;28;19918;-54
2024/01/06 02:52:46;;;;;;;;;;;;;;;;;;4960165;28;20271;-54
2024/01/06 02:55:12;;;;;;;;;;;;;;;;;;4958786;28;20012;-54
2024/01/06 02:57:38;;;;;;;;;;;;;;;;;;4962342;28;20001;-54
2024/01/06 03:00:04;;;;;;;;;;;;;;;;;;4957272;28;19922;-54
2024/01/06 03:02:29;;;;;;;;;;;1.80;99.90;;;;;;4955342;28;19930;-54
2024/01/06 03:04:56;;;;;;;;;;;;;;;;;;4951158;28;19953;-54
2024/01/06 03:07:22;;;;;;;;;;;;;;;;;;4956447;28;19918;-53
2024/01/06 03:09:48;;;;;;;;;;;;;;;;;;4960257;28;19997;-54
2024/01/06 03:12:13;;;;;;;;;;;;;;;;;;4953435;28;19925;-54
2024/01/06 03:14:39;;;;;;;;;;;;;;;;;;4961945;28;19926;-54
2024/01/06 03:17:05;;;;;;;;;;;;;;;;;;4958768;28;19918;-54
2024/01/06 03:19:31;;;;;;;;;;;;;;;;;;4959382;28;19938;-54
2024/01/06 03:21:57;;;;;;;;;;;;;;;;;;4956134;28;19922;-54
2024/01/06 03:24:23;;;;;;;;;;;;;;;;;;4955538;28;20026;-54
2024/01/06 03:26:49;;;;;;;;;;;;;;;;;;4977897;28;20118;-54
2024/01/06 03:29:14;;;;;;;;;;;;;;;;;;4954541;28;19961;-54
2024/01/06 03:31:40;;;;;;;;;;;;;;;;;;4964388;28;20016;-54
2024/01/06 03:34:08;;;;;;;;;;;;;;;;;;4957854;28;19919;-55
2024/01/06 03:36:34;;;;;;;;;;;;;;;;;;4959147;28;19976;-54
2024/01/06 03:39:00;;;;;;;;;;;;;;;;;;4959071;28;20334;-54
2024/01/06 03:41:26;;;;;;;;;;;;;;;;;;4966265;28;20028;-54
2024/01/06 03:43:52;;;;;;;;;;;;;;;;;;4976800;28;20339;-50
2024/01/06 03:46:18;;;;;;;;;;;;;;;;;;4967141;28;20005;-49
2024/01/06 03:48:43;;;;;;;;;;;;;;;;;;4967501;28;19914;-50
2024/01/06 03:51:09;;;;;;;;;;;;;;;;;;4967152;28;20083;-50
2024/01/06 03:53:35;;;;;;;;;;;;;;;;;;4967077;28;20365;-50
2024/01/06 03:56:01;;;;;;;;;;;;;;;;;;4967007;28;20004;-50
2024/01/06 03:58:27;;;;;;;;;;;;;;;;;;4967426;28;19918;-49
2024/01/06 04:00:53;;;;;;;;;;;;;;;;;;4967030;28;19914;-51
2024/01/06 04:03:19;;;;;;;;;;;;;;;;;;4967472;28;19918;-51
2024/01/06 04:05:45;;;;;;;;;;;;;;;;;;4967289;28;20420;-50
2024/01/06 04:08:10;;;;;;;;;;;;;;;;;;4967064;28;19964;-50
2024/01/06 04:10:36;;;;;;;;;;;;;;;;;;4967544;28;19934;-51
2024/01/06 04:13:02;;;;;;;;;;;;;;;;;;4966897;28;19914;-51
2024/01/06 04:15:28;;;;;;;;;;;;;;;;;;4966594;28;19960;-51
2024/01/06 04:17:54;;;;;;;;;;;;;;;;;;4967132;28;19948;-50
2024/01/06 04:20:20;;;;;;;;;;;;;;;;;;4966864;28;19924;-51
2024/01/06 04:22:46;;;;;;;;;;;;;;;;;;4967245;28;19925;-50
2024/01/06 04:25:12;;;;;;;;;;;;;;;;;;4967240;28;19918;-51
2024/01/06 04:27:37;;;;;;;;;;;;;;;;;;4966619;28;19914;-50
2024/01/06 04:30:03;;;;;;;;;;;;;;;;;;4966877;28;20280;-51
2024/01/06 04:32:29;;;;;;;;;;;;;;;;;;4966661;28;20433;-51
2024/01/06 04:34:57;;;;;;;;;;;;;;;;;;4966416;28;19919;-51
2024/01/06 04:37:22;;;;;;;;;;;;;;;;;;4967245;28;20402;-51
2024/01/06 04:39:48;;;;;;;;;;;;;;;;;;4966825;28;19993;-51
2024/01/06 04:42:14;;;;;;;;;;;;;;;;;;4966484;28;19922;-51
2024/01/06 04:44:40;;;;;;;;;;;;;;;;;;4966394;28;19933;-51
2024/01/06 04:47:06;;;;;;;;;;;;;;;;;;4966376;28;19910;-51
2024/01/06 04:49:31;;;;;;;;;;;1.30;99.90;;;;;;4966650;28;19914;-50
2024/01/06 04:51:57;;;;;;;;;;;;;;;;;;4966516;28;19918;-50
2024/01/06 04:54:23;;;;;;;;;;;;;;;;;;4966468;28;19960;-50
2024/01/06 04:56:49;;;;;;;;;;;;;;;;;;4966611;28;20009;-51
2024/01/06 04:59:15;;;;;;;;;;;;;;;;;;4966627;28;20324;-50
2024/01/06 05:01:41;;;;;;;;;;;;;;;;;;4966789;28;19915;-51
2024/01/06 05:04:07;;;;;;;;;;;;;;;;;;4966128;28;19914;-50
2024/01/06 05:06:32;;;;;;;;;;;;;;;;;;4966204;28;20530;-51
2024/01/06 05:08:58;;;;;;;;;;;;;;;;;;4966179;28;19960;-51
2024/01/06 05:11:24;;;;;;;;;;;;;;;;;;4966373;28;19918;-51
2024/01/06 05:13:50;;;;;;;;;;;;;;;;;;4966768;28;19921;-50
2024/01/06 05:16:16;;;;;;;;;;;;;;;;;;4966357;28;20327;-51
2024/01/06 05:18:42;;;;;;;;;;;;;;;;;;4965949;28;19915;-50
2024/01/06 05:21:07;;;;;;;;;;;1.70;99.90;;;;;;4966028;28;20005;-50
2024/01/06 05:23:33;;;;;;;;;;;;;;;;;;4965976;28;20372;-51
2024/01/06 05:25:59;;;;;;;;;;;;;;;;;;4965976;28;19972;-51
2024/01/06 05:28:25;;;;;;;;;;;;;;;;;;4966330;28;19919;-51
2024/01/06 05:30:51;;;;;;;;;;;;;;;;;;4966072;28;20002;-51
2024/01/06 05:33:17;;;;;;;;;;;;;;;;;;4965882;28;19925;-51
2024/01/06 05:35:42;;;;;;;;;;;;;;;;;;4966009;28;20022;-51
2024/01/06 05:38:08;;;;;;;;;;;;;;;;;;4965646;28;19917;-51
2024/01/06 05:40:34;;;;;;;;;;;;;;;;;;4966543;28;20415;-51
2024/01/06 05:43:00;;;;;;;;;;;;;;;;;;4965471;28;19929;-50
2024/01/06 05:45:26;;;;;;;;;;;;;;;;;;4965674;28;20415;-50
2024/01/06 05:47:52;;;;;;;;;;;;;;;;;;4966112;28;19914;-50
2024/01/06 05:50:18;;;;;;;;;;;;;;;;;;4965781;28;19968;-50
2024/01/06 05:52:44;;;;;;;;;;;;;;;;;;4966132;28;19980;-51
2024/01/06 05:55:10;;;;;;;;;;;;;;;;;;4965916;28;19938;-50
2024/01/06 05:57:36;;;;;;;;;;;;;;;;;;4965655;28;19918;-50
2024/01/06 06:00:02;;;;;;;;;;;;;;;;;;4965857;28;19922;-50
2024/01/06 06:02:28;;;;;;;;;;;;;;;;;;4965450;28;20344;-50
2024/01/06 06:04:53;;;;;;;;;;;;;;;;;;4966018;28;19910;-50
2024/01/06 06:07:20;;;;;;;;;;;;;;;;;;4965488;28;19914;-50
2024/01/06 06:09:49;;;;;;;;;;;;;;;;;;4965647;28;19923;-51
2024/01/06 06:12:15;;;;;;;;;;;;;;;;;;4965705;28;19914;-50
2024/01/06 06:14:40;;;;;;;;;;;;;;;;;;4965714;28;20293;-50
2024/01/06 06:17:06;;;;;;;;;;;;;;;;;;4965789;28;19914;-50
2024/01/06 06:19:32;;;;;;;;;;;;;;;;;;4965734;28;19910;-50
2024/01/06 06:21:58;;;;;;;;;;;;;;;;;;4965424;28;19941;-50
2024/01/06 06:24:24;;;;;;;;;;;;;;;;;;4966678;28;19925;-50
2024/01/06 06:26:50;;;;;;;;;;;;;;;;;;4965477;28;19914;-50
2024/01/06 06:29:16;;;;;;;;;;;;;;;;;;4965302;28;19922;-50
2024/01/06 06:31:44;;;;;;;;;;;;;;;;;;4965899;28;19914;-50
2024/01/06 06:34:10;;;;;;;;;;;1.20;99.90;;;;;;4965599;28;19941;-51
2024/01/06 06:36:36;;;;;;;;;;;;;;;;;;4965523;28;19918;-51
2024/01/06 06:39:04;;;;;;;;;;;;;;;;;;4965158;28;19922;-51
2024/01/06 06:41:29;;;;;;;;;;;;;;;;;;4965389;28;19918;-51
2024/01/06 06:43:55;;;;;;;;;;;0.80;99.90;;;;;;4965104;28;19941;-51
2024/01/06 06:46:21;;;;;;;;;;;;;;;;;;4965500;28;19915;-50
2024/01/06 06:48:47;;;;;;;;;;;;;;;;;;4965078;28;19914;-50
2024/01/06 06:51:13;;;;;;;;;;;1.40;99.90;;;;;;4966940;28;20307;-51
2024/01/06 06:53:38;;;;;;;;;;;;;;;;;;4968396;28;20300;-51
2024/01/06 06:56:04;;;;;;;;;;;;;;;;;;4968387;28;19910;-50
2024/01/06 06:58:30;;;;;;;;;;;;;;;;;;4968851;28;20283;-51
2024/01/06 07:00:56;;;;;;;;;;;;;;;;;;4968193;28;19918;-50
2024/01/06 07:03:22;;;;;;;;;;;;;;;;;;4968255;28;20287;-50
2024/01/06 07:05:48;;;;;;;;;;;;;;;;;;4968543;28;19957;-49
2024/01/06 07:08:15;;;;;;;;;;;;;;;;;;4968247;28;19937;-49
2024/01/06 07:10:40;;;;;;;;;;;;;;;;;;4968609;28;19907;-50
2024/01/06 07:13:06;;;;;;;;;;;;;;;;;;4968613;28;20369;-50
2024/01/06 07:15:32;;;;;;;;;;;;;;;;;;4968089;28;19973;-49
2024/01/06 07:17:58;;;;;;;;;;;;;;;;;;4968089;28;20385;-49
2024/01/06 07:20:24;;;;;;;;;;;;;;;;;;4967974;28;19914;-49
2024/01/06 07:22:50;;;;;;;;;;;;;;;;;;4966988;28;20204;-49
2024/01/06 07:25:15;;;;;;;;;;;1.40;99.90;;;;;;4967895;28;20053;-49
2024/01/06 07:27:41;;;;;;;;;;;;;;;;;;4967881;28;19922;-49
2024/01/06 07:30:10;;;;;;;;;;;;;;;;;;4968011;28;19964;-49
2024/01/06 07:32:36;;;;;;;;;;;;;;;;;;4967862;28;19918;-49
2024/01/06 07:35:02;;;;;;;;;;;;;;;;;;4967667;28;20339;-50
2024/01/06 07:37:28;;;;;;;;;;;;;;;;;;4968679;28;19911;-49
2024/01/06 07:39:54;;;;;;;;;;;;;;;;;;4967853;28;19932;-49
2024/01/06 07:42:20;;;;;;;;;;;;;;;;;;4967555;28;20372;-49
2024/01/06 07:44:45;;;;;;;;;;;;;;;;;;4967682;28;20025;-49
2024/01/06 07:47:11;;;;;;;;;;;;;;;;;;4967693;28;19990;-49
2024/01/06 07:49:37;;;;;;;;;;;;;;;;;;4967952;28;20000;-49
2024/01/06 07:52:03;;;;;;;;;;;;;;;;;;4967567;28;19914;-49
2024/01/06 07:54:29;;;;;;;;;;;;;;;;;;4967368;28;19914;-49
2024/01/06 07:56:55;;;;;;;;;;;1.10;99.90;;;;;;4967446;28;20627;-49
2024/01/06 07:59:21;;;;;;;;;;;;;;;;;;4967421;28;19921;-49
2024/01/06 08:01:47;;;;;;;;;;;;;;;;;;4967467;28;19976;-49
2024/01/06 08:04:12;;;;;;;;;;;;;;;;;;4967221;28;19996;-49
2024/01/06 08:06:38;;;;;;;;;;;;;;;;;;4967474;28;19914;-48
2024/01/06 08:09:04;;;;;;;;;;;;;;;;;;4967377;28;19945;-49
2024/01/06 08:11:30;;;;;;;;;;;;;;;;;;4967220;28;20365;-49
2024/01/06 08:13:56;;;;;;;;;;;;;;;;;;4967011;28;19914;-49
2024/01/06 08:16:22;;;;;;;;;;;;;;;;;;4967606;28;19992;-50
2024/01/06 08:18:48;;;;;;;;;;;;;;;;;;4966922;28;19988;-49
2024/01/06 08:21:14;;;;;;;;;;;;;;;;;;4967161;28;19922;-50
2024/01/06 08:23:39;;;;;;;;;;;1.20;99.90;;;;;;4967063;28;20295;-50
2024/01/06 08:26:05;;;;;;;;;;;;;;;;;;4966999;28;19949;-49
2024/01/06 08:28:31;;;;;;;;;;;;;;;;;;4967656;28;19932;-49
2024/01/06 08:30:57;;;;;;;;;;;;;;;;;;4966749;28;20008;-49
2024/01/06 08:33:23;;;;;;;;;;;1.00;99.90;;;;;;4966886;28;19920;-49
2024/01/06 08:35:48;;;;;;;;;;;;;;;;;;4966680;28;20179;-49
2024/01/06 08:38:15;;;;;;;;;;;;;;;;;;4967407;28;19917;-49
2024/01/06 08:40:41;;;;;;;;;;;;;;;;;;4967254;28;19910;-49
2024/01/06 08:43:07;;;;;;;;;;;;;;;;;;4966626;28;19929;-49
2024/01/06 08:45:33;;;;;;;;;;;0.90;99.90;;;;;;4966884;28;20004;-50
2024/01/06 08:47:58;;;;;;;;;;;1.20;99.90;;;;;;4966993;28;19922;-49
2024/01/06 08:50:24;;;;;;;;;;;;;;;;;;4966689;28;20128;-51
2024/01/06 08:52:50;;;;;;;;;;;;;;;;;;4966740;28;19925;-51
2024/01/06 08:55:16;;;;;;;;;;;;;;;;;;4967061;28;20052;-52
2024/01/06 08:57:42;;;;;;;;;;;;;;;;;;4966724;28;20364;-52
2024/01/06 09:00:09;;;;;;;;;;;;;;;;;;4966927;28;20017;-52
2024/01/06 09:02:35;;;;;;;;;;;;;;;;;;4966307;28;19958;-49
2024/01/06 09:05:00;;;;;;;;;;;;;;;;;;4966157;28;19949;-50
2024/01/06 09:07:26;;;;;;;;;;;1.30;99.90;;;;;;4966665;28;19906;-49
2024/01/06 09:09:51;;;;;;;;;;;1.30;99.90;;;;;;4966407;28;19954;-49
2024/01/06 09:12:17;;;;;;;;;;;;;;;;;;4966504;28;19922;-49
2024/01/06 09:14:43;;;;;;;;;;;;;;;;;;4965282;28;20004;-50
2024/01/06 09:17:09;;;;;;;;;;;;;;;;;;4966550;28;19910;-50
2024/01/06 09:19:35;;;;;;;;;;;;;;;;;;4966822;28;20017;-49
2024/01/06 09:22:01;;;;;;;;;;;;;;;;;;4966087;28;19980;-49
2024/01/06 09:24:27;;;;;;;;;;;;;;;;;;4966301;28;19968;-50
2024/01/06 09:26:53;;;;;;;;;;;;;;;;;;4967612;28;20649;-50
2024/01/06 09:29:19;;;;;;;;;;;;;;;;;;4965781;28;20292;-49
2024/01/06 09:31:45;;;;;;;;;;;;;;;;;;4966336;28;19915;-49
2024/01/06 09:34:12;;;;;;;;;;;;;;;;;;4965475;28;21200;-49
2024/01/06 09:36:38;;;;;;;;;;;;;;;;;;4966088;28;20306;-50
2024/01/06 09:39:04;;;;;;;;;;;0.90;99.90;;;;;;4965997;28;19914;-50
2024/01/06 09:41:30;;;;;;;;;;;;;;;;;;4966017;28;20001;-50
2024/01/06 09:43:56;;;;;;;;;;;;;;;;;;4966026;28;19922;-50
2024/01/06 09:46:22;;;;;;;;;;;;;;;;;;4967108;28;20310;-49
2024/01/06 09:48:48;;;;;;;;;;;;;;;;;;4967440;28;20313;-49
2024/01/06 09:51:13;;;;;;;;;;;;;;;;;;4967219;28;20289;-49
2024/01/06 09:53:39;;;;;;;;;;;;;;;;;;4967461;28;19997;-50
2024/01/06 09:56:05;;;;;;;;;;;1.40;99.90;;;;;;4967178;28;19914;-50
2024/01/06 09:58:34;;;;;;;;;;;1.10;99.90;;;;;;4978597;28;20009;-49
2024/01/06 10:00:59;;;;;;;;;;;;;;;;;;5048481;28;19923;-50
2024/01/06 10:03:26;;;;;;;;;;;1.10;99.90;;;;;;5048367;28;19921;-50
2024/01/06 10:05:52;;;;;;;;;;;;;;;;;;5048410;28;19920;-50
2024/01/06 10:08:18;;;;;;;;;;;;;;;;;;5048485;28;19923;-50
2024/01/06 10:10:47;;;;;;;;;;;1.10;99.90;;;;;;5048801;28;20132;-50
2024/01/06 10:13:13;;;;;;;;;;;;;;;;;;5048594;28;20035;-49
2024/01/06 10:15:39;;;;;;;;;;;;;;;;;;5047036;28;20003;-49
2024/01/06 10:18:05;;;;;;;;;;;;;;;;;;5048151;28;19913;-50
2024/01/06 10:20:31;;;;;;;;;;;1.20;99.90;;;;;;5048554;28;20023;-50
2024/01/06 10:22:56;;;;;;;;;;;;;;;;;;5048376;28;19913;-49
2024/01/06 10:25:22;;;;;;;;;;;;;;;;;;5051154;28;19939;-49
2024/01/06 10:27:48;;;;;;;;;;;;;;;;;;5052509;28;20272;-49
2024/01/06 10:30:17;;;;;;;;;;;;;;;;;;5052186;28;19959;-49
2024/01/06 10:32:44;;;;;;;;;;;;;;;;;;5052108;28;19916;-49
2024/01/06 10:35:09;;;;;;;;;;;1.10;99.90;;;;;;5051934;28;20375;-49
2024/01/06 10:37:35;;;;;;;;;;;1.30;99.90;;;;;;5052470;28;19958;-49
2024/01/06 10:40:01;;;;;;;;;;;;;;;;;;5052061;28;20394;-49
2024/01/06 10:42:27;;;;;;;;;;;;;;;;;;5051823;28;19916;-49
2024/01/06 10:44:53;;;;;;;;;;;;;;;;;;5051576;28;19990;-49
2024/01/06 10:47:19;;;;;;;;;;;;;;;;;;5051950;28;19917;-49
2024/01/06 10:49:45;;;;;;;;;;;1.10;99.90;;;;;;5052153;28;19909;-49
2024/01/06 10:52:10;;;;;;;;;;;1.10;99.90;;;;;;5051579;28;19919;-48
2024/01/06 10:54:36;;;;;;;;;;;;;;;;;;5051546;28;19913;-49
2024/01/06 10:57:02;;;;;;;;;;;1.10;99.90;;;;;;5051767;28;20151;-49
2024/01/06 10:59:29;;;;;;;;;;;;;;;;;;5051555;28;19917;-49
2024/01/06 11:01:55;;;;;;;;;;;;;;;;;;5051704;28;20003;-49
2024/01/06 11:04:22;;;;;;;;;;;;;;;;;;5049749;28;19974;-49
2024/01/06 11:06:47;;;;;;;;;;;;;;;;;;5050188;28;19917;-49
2024/01/06 11:09:13;;;;;;;;;;;;;;;;;;5050156;28;20536;-50
2024/01/06 11:11:39;;;;;;;;;;;1.20;99.90;;;;;;5050195;28;19916;-49
2024/01/06 11:14:05;;;;;;;;;;;;;;;;;;5049946;28;20207;-49
2024/01/06 11:16:31;;;;;;;;;;;;;;;;;;5050702;28;19991;-49
2024/01/06 11:18:56;;;;;;;;;;;1.10;99.90;;;;;;5049875;28;19924;-49
2024/01/06 11:21:24;;;;;;;;;;;;;;;;;;5049702;28;19952;-50
2024/01/06 11:23:50;;;;;;;;;;;;;;;;;;5049796;28;19913;-49
2024/01/06 11:26:15;;;;;;;;;;;1.30;99.90;;;;;;5050052;28;19920;-50
2024/01/06 11:28:47;;;;;;;;;;;1.10;99.90;;;;;;5050472;28;19962;-50
2024/01/06 11:31:13;;;;;;;;;;;;;;;;;;5049533;28;20363;-51
2024/01/06 11:33:39;;;;;;;;;;;;;;;;;;5049515;28;19917;-51
2024/01/06 11:36:05;;;;;;;;;;;;;;;;;;5048898;28;19921;-50
2024/01/06 11:38:31;;;;;;;;;;;;;;;;;;5049437;28;20359;-51
2024/01/06 11:40:57;;;;;;;;;;;;;;;;;;5049441;28;19909;-50
2024/01/06 11:43:24;;;;;;;;;;;;;;;;;;5049719;28;19982;-50
2024/01/06 11:45:50;;;;;;;;;;;;;;;;;;5049378;28;19917;-51
2024/01/06 11:48:16;;;;;;;;;;;;;;;;;;5049451;28;20350;-50
2024/01/06 11:50:43;;;;;;;;;;;;;;;;;;5049191;28;19943;-51
2024/01/06 11:53:09;;;;;;;;;;;;;;;;;;5049076;28;19912;-50
2024/01/06 11:55:36;;;;;;;;;;;;;;;;;;5049546;28;19909;-51
2024/01/06 11:58:02;;;;;;;;;;;1.00;99.90;;;;;;5049190;28;19913;-51
2024/01/06 12:00:28;;;;;;;;;;;;;;;;;;5049023;28;19916;-51
2024/01/06 12:02:54;;;;;;;;;;;;;;;;;;5049174;28;20372;-50
2024/01/06 12:05:20;;;;;;;;;;;;;;;;;;5048591;28;19935;-51
2024/01/06 12:07:46;;;;;;;;;;;;;;;;;;5049418;28;19912;-50
2024/01/06 12:10:14;;;;;;;;;;;;;;;;;;5048854;28;20012;-50
2024/01/06 12:12:39;;;;;;;;;;;;;;;;;;5048872;28;19916;-50
2024/01/06 12:15:05;;;;;;;;;;;1.70;99.90;;;;;;4995091;28;19941;-50
2024/01/06 12:17:31;;;;;;;;;;;;;;;;;;4967370;28;19918;-50
2024/01/06 12:19:57;;;;;;;;;;;;;;;;;;4967336;28;20403;-50
2024/01/06 12:22:23;;;;;;;;;;;;;;;;;;4967529;28;20005;-50
2024/01/06 12:24:49;;;;;;;;;;;;;;;;;;4967206;28;19918;-50
2024/01/06 12:27:15;;;;;;;;;;;;;;;;;;4967766;28;19918;-51
2024/01/06 12:29:41;;;;;;;;;;;1.10;99.90;;;;;;4967442;28;19914;-50
2024/01/06 12:32:07;;;;;;;;;;;;;;;;;;4967129;28;19910;-50
2024/01/06 12:34:33;;;;;;;;;;;;;;;;;;4967359;28;19979;-50
2024/01/06 12:37:01;;;;;;;;;;;;;;;;;;4966641;28;19929;-50
2024/01/06 12:39:27;;;;;;;;;;;;;;;;;;4966750;28;20400;-50
2024/01/06 12:41:53;;;;;;;;;;;1.00;99.90;;;;;;4966804;28;20009;-50
2024/01/06 12:44:19;;;;;;;;;;;;;;;;;;4966546;28;20024;-50
2024/01/06 12:46:45;;;;;;;;;;;1.20;99.90;;;;;;4967350;28;20009;-51
2024/01/06 12:49:11;;;;;;;;;;;;;;;;;;4965495;28;19915;-51
2024/01/06 12:51:37;;;;;;;;;;;;;;;;;;4966727;28;19921;-50
2024/01/06 12:54:03;;;;;;;;;;;;;;;;;;4966535;28;19922;-50
2024/01/06 12:56:28;;;;;;;;;;;1.20;99.90;;;;;;4966746;28;19914;-50
2024/01/06 12:58:54;;;;;;;;;;;1.00;99.90;;;;;;4967187;28;19937;-50
2024/01/06 13:01:20;;;;;;;;;;;;;;;;;;4966169;28;19953;-51
2024/01/06 13:03:46;;;;;;;;;;;;;;;;;;4966197;28;19918;-50
2024/01/06 13:06:12;;;;;;;;;;;;;;;;;;4966912;28;20395;-49
2024/01/06 13:08:38;;;;;;;;;;;1.10;99.90;;;;;;4966652;28;19921;-50
2024/01/06 13:11:04;;;;;;;;;;;;;;;;;;4966578;28;20314;-50
2024/01/06 13:13:31;;;;;;;;;;;;;;;;;;4966500;28;19954;-50
2024/01/06 13:15:57;;;;;;;;;;;0.90;99.90;;;;;;4966401;28;20218;-50
2024/01/06 13:18:22;;;;;;;;;;;;;;;;;;4966276;28;20008;-50
2024/01/06 13:20:49;;;;;;;;;;;;;;;;;;4966475;28;19914;-50
2024/01/06 13:23:15;;;;;;;;;;;;;;;;;;4966360;28;20019;-50
2024/01/06 13:25:41;;;;;;;;;;;;;;;;;;4967290;28;20254;-51
2024/01/06 13:28:07;;;;;;;;;;;;;;;;;;4966363;28;19914;-50
2024/01/06 13:30:33;;;;;;;;;;;;;;;;;;4966978;28;19915;-50
2024/01/06 13:32:59;;;;;;;;;;;;;;;;;;4966459;28;20017;-51
2024/01/06 13:35:28;;;;;;;;;;;;;;;;;;4966253;28;19922;-50
2024/01/06 13:37:55;;;;;;;;;;;;;;;;;;4967281;28;19910;-50
2024/01/06 13:40:21;;;;;;;;;;;0.90;99.90;;;;;;4966416;28;19946;-50
2024/01/06 13:42:47;;;;;;;;;;;;;;;;;;4966198;28;19967;-49
2024/01/06 13:45:13;;;;;;;;;;;1.00;99.90;;;;;;4966255;28;19922;-49
2024/01/06 13:47:41;;;;;;;;;;;;;;;;;;4966015;28;19921;-49
2024/01/06 13:50:07;;;;;;;;;;;;;;;;;;4966107;28;19910;-51
2024/01/06 13:52:33;;;;;;;;;;;;;;;;;;4966393;28;19906;-50
2024/01/06 13:54:59;;;;;;;;;;;;;;;;;;4966193;28;19914;-50
2024/01/06 13:57:25;;;;;;;;;;;;;;;;;;4966085;28;19996;-50
2024/01/06 13:59:51;;;;;;;;;;;;;;;;;;4967022;28;19918;-50
2024/01/06 14:02:17;;;;;;;;;;;;;;;;;;4969458;28;20009;-51
2024/01/06 14:04:43;;;;;;;;;;;;;;;;;;4969704;28;19910;-50
2024/01/06 14:07:10;;;;;;;;;;;0.70;99.90;;;;;;4969590;28;20052;-51
2024/01/06 14:09:36;;;;;;;;;;;;;;;;;;4969036;28;19922;-50
2024/01/06 14:12:01;;;;;;;;;;;;;;;;;;4969180;28;20292;-50
2024/01/06 14:14:27;;;;;;;;;;;;;;;;;;4969233;28;19969;-51
2024/01/06 14:16:53;;;;;;;;;;;;;;;;;;4969868;28;19910;-50
2024/01/06 14:19:19;;;;;;;;;;;;;;;;;;4969110;28;19915;-50
2024/01/06 14:21:45;;;;;;;;;;;;;;;;;;4969299;28;19944;-50
2024/01/06 14:24:11;;;;;;;;;;;;;;;;;;4969021;28;19918;-50
2024/01/06 14:26:38;;;;;;;;;;;;;;;;;;4969147;28;19914;-50
2024/01/06 14:29:04;;;;;;;;;;;0.90;99.90;;;;;;4968944;28;20013;-50
2024/01/06 14:31:30;;;;;;;;;;;;;;;;;;4969644;28;20408;-50
2024/01/06 14:33:56;;;;;;;;;;;;;;;;;;4969013;28;19926;-50
2024/01/06 14:36:22;;;;;;;;;;;;;;;;;;4969160;28;19914;-50
2024/01/06 14:38:47;;;;;;;;;;;;;;;;;;4968879;28;19975;-50
2024/01/06 14:41:13;;;;;;;;;;;;;;;;;;4968825;28;20429;-50
2024/01/06 14:43:39;;;;;;;;;;;;;;;;;;4968708;28;19922;-50
2024/01/06 14:46:05;;;;;;;;;;;0.30;99.90;;;;;;4968637;28;19918;-50
2024/01/06 14:48:31;;;;;;;;;;;;;;;;;;4968265;28;20401;-50
2024/01/06 14:50:57;;;;;;;;;;;0.60;99.90;;;;;;4968680;28;19918;-50
2024/01/06 14:53:22;;;;;;;;;;;;;;;;;;4970318;28;19921;-52
2024/01/06 14:55:48;;;;;;;;;;;;;;;;;;4969449;28;20361;-50
2024/01/06 14:58:14;;;;;;;;;;;;;;;;;;4968839;28;19949;-51
2024/01/06 15:00:40;;;;;;;;;;;0.60;99.90;;;;;;4968099;28;20607;-50
2024/01/06 15:03:05;;;;;;;;;;;;;;;;;;4968152;28;20045;-50
2024/01/06 15:05:31;;;;;;;;;;;;;;;;;;4968311;28;19929;-49
2024/01/06 15:07:57;;;;;;;;;;;;;;;;;;4968266;28;20383;-49
2024/01/06 15:10:23;;;;;;;;;;;;;;;;;;4968746;28;19906;-50
2024/01/06 15:12:49;;;;;;;;;;;;;;;;;;4967245;28;19914;-50
2024/01/06 15:15:15;;;;;;;;;;;;;;;;;;4968319;28;19914;-50
2024/01/06 15:17:41;;;;;;;;;;;;;;;;;;4968307;28;20024;-49
2024/01/06 15:20:07;;;;;;;;;;;0.80;99.90;;;;;;4967910;28;19957;-50
2024/01/06 15:22:33;;;;;;;;;;;;;;;;;;4968351;28;20276;-50
2024/01/06 15:27:43;;;;;;;;;;;0.70;99.90;;;;;;4968986;28;19944;-51
2024/01/06 15:30:09;;;;;;;;;;;;;;;;;;4967763;28;20319;-50
2024/01/06 15:32:35;;;;;;;;;;;;;;;;;;4967781;28;19980;-50
2024/01/06 15:35:01;;;;;;;;;;;;;;;;;;4967966;28;19914;-50
2024/01/06 15:37:27;;;;;;;;;;;;;;;;;;4968155;28;19933;-50
2024/01/06 15:39:53;;;;;;;;;;;;;;;;;;4967420;28;19914;-50
2024/01/06 15:42:19;;;;;;;;;;;;;;;;;;4967556;28;19929;-51
2024/01/06 15:44:45;;;;;;;;;;;;;;;;;;4967784;28;19954;-50
2024/01/06 15:47:10;;;;;;;;;;;;;;;;;;4967444;28;19922;-50
2024/01/06 15:49:36;;;;;;;;;;;;;;;;;;4968264;28;20273;-49
2024/01/06 15:52:03;;;;;;;;;;;;;;;;;;4967574;28;19918;-49
2024/01/06 15:54:29;;;;;;;;;;;;;;;;;;4967988;28;20329;-50
2024/01/06 15:56:55;;;;;;;;;;;;;;;;;;4967232;28;19985;-50
2024/01/06 15:59:21;;;;;;;;;;;;;;;;;;4967598;28;19918;-50
2024/01/06 16:01:48;;;;;;;;;;;;;;;;;;4967524;28;19971;-50
2024/01/06 16:04:13;;;;;;;;;;;0.60;1.00;;;;;;4967485;28;19914;-50
2024/01/06 16:06:40;;;;;;;;;;;;;;;;;;4967207;28;19914;-50
2024/01/06 16:09:05;;;;;;;;;;;;;;;;;;4967344;28;19972;-50
2024/01/06 16:11:31;;;;;;;;;;;;;;;;;;4967348;28;19918;-50
2024/01/06 16:13:57;;;;;;;;;;;;;;;;;;4966860;28;20005;-49
2024/01/06 16:16:23;;;;;;;;;;;;;;;;;;4967542;28;19917;-50
2024/01/06 16:18:49;;;;;;;;;;;;;;;;;;4967009;28;19922;-51